Airfield :
LOGIN :

Register | Disclaimer

   EN    FR    IT 

 










Legend :    VFR   Marginal VFR   IFR   Intensive IFR   Very Intensive IFR
Visi :
Ceiling :
>= 8 km
>= 3000ft
5 to 8 km
1000 to 3000 ft
1500m to 5 km
500 to 1000 ft
800 to 1500m
200 to 500 ft
< 800m
< 200 ft
Symbols :   Thunderstorms  Fog  Heavy snow  Heavy precipitations  Wind > 20 kt
SIGMETs :     Misc.  Thunderstorms  Icing  Turbulence  Mountain Waves  Volcanic Ashes






- Airport Elevation : 44 ft
- IATA code : SOU


EGHI - Southampton

CURRENT METAR :
  • 280850Z 16009KT 130V200 9000 -RA SCT014 BKN032 06/04 Q1009

EXPIRED METARs :
  • 280820Z 16007KT 130V220 9000 -RA SCT014 BKN032 06/04 Q1010
  • 280750Z 18013KT 140V220 9999 -RA SCT035 06/04 Q1011
  • 280720Z 17009G20KT 130V210 9999 -RA SCT017 07/04 Q1011
  • 280650Z 16006KT 120V200 9999 -RA SCT023 07/03 Q1011
  • 280620Z 15005KT 100V190 9999 -RA SCT023 06/02 Q1012

TAF TAF EGHI
Valid from the 28 at 09:00 until the 28 at 18:00 UTC


280755Z 2809/2818 19016KT 9999 SCT015
BECMG 2809/2812 FEW004 BKN008
TEMPO 2809/2818 6000 RA
PROB40
TEMPO 2809/2812 19020G30KT 3000 +RADZ BR BKN004
BECMG 2812/2815 23022G32KT
TEMPO 2812/2818 BKN004
ATIS : +44 23 8062 7103



MET'MAP, your aeronautical weather chart ! - Copyright ORBIFLY December 2007 - Disclaimer

ORBIFLY MET'MAP TEAM :

Programming & Development : Alexandra Zaïnal
Concept & original design : Baudouin d'Aumeries
Assistance for programming : Marc-Olivier Méhu
Technical & hardware support : Manuel Goepfert

Contact : metmap@orbifly.com




SOURCES & CREDITS :

   NOAA